Terminal Aerodrome Forecast
Issued by NWS

Current Version | Previous Version | Graphics & Text | Print | Product List | Glossary On
Versions: 1 2 3 4 5 6 7 8 9 10 11 12 13 14 15 16 17 18 19 20 21 22 23 24 25 26 27 28 29 30 31 32 33 34 35 36
743
FTUS41 KRNK 261145
TAFLWB
TAF
KLWB 261145Z 2612/2712 VRB03KT P6SM OVC018
      TEMPO 2612/2614 5SM BR OVC014
     FM261900 21006KT P6SM VCSH BKN025 OVC050
     FM262200 24005KT 5SM TSRA OVC025CB
     FM270100 26004KT 3SM SHRA BR OVC015
     FM270600 28004KT P6SM SCT015 BKN100
     FM271000 00000KT 1SM BR VV007=

USA.gov is the U.S. government's official web portal to all federal, state and local government web resources and services.